sensor_id;sensor_type;location;lat;lon;timestamp;P1;durP1;ratioP1;P2;durP2;ratioP2
16189;SDS011;41754;51.498;7.540;2023-07-13T00:01:19;2.65;;;1.50;;
16189;SDS011;41754;51.498;7.540;2023-07-13T00:03:47;2.75;;;1.58;;
16189;SDS011;41754;51.498;7.540;2023-07-13T00:06:15;2.90;;;1.58;;
16189;SDS011;41754;51.498;7.540;2023-07-13T00:08:43;5.35;;;1.90;;
16189;SDS011;41754;51.498;7.540;2023-07-13T00:11:11;3.83;;;1.70;;
16189;SDS011;41754;51.498;7.540;2023-07-13T00:13:39;7.85;;;1.90;;
16189;SDS011;41754;51.498;7.540;2023-07-13T00:16:09;7.20;;;1.92;;
16189;SDS011;41754;51.498;7.540;2023-07-13T00:18:40;4.55;;;1.83;;
16189;SDS011;41754;51.498;7.540;2023-07-13T00:21:08;3.85;;;1.67;;
16189;SDS011;41754;51.498;7.540;2023-07-13T00:23:36;3.65;;;1.73;;
16189;SDS011;41754;51.498;7.540;2023-07-13T00:26:06;4.88;;;1.92;;
16189;SDS011;41754;51.498;7.540;2023-07-13T00:28:37;4.30;;;1.80;;
16189;SDS011;41754;51.498;7.540;2023-07-13T00:31:06;4.55;;;1.60;;
16189;SDS011;41754;51.498;7.540;2023-07-13T00:33:35;4.05;;;1.50;;
16189;SDS011;41754;51.498;7.540;2023-07-13T00:36:05;4.50;;;1.67;;
16189;SDS011;41754;51.498;7.540;2023-07-13T00:38:33;4.70;;;1.70;;
16189;SDS011;41754;51.498;7.540;2023-07-13T00:41:01;5.53;;;2.15;;
16189;SDS011;41754;51.498;7.540;2023-07-13T00:43:30;6.30;;;1.70;;
16189;SDS011;41754;51.498;7.540;2023-07-13T00:46:10;3.60;;;1.80;;
16189;SDS011;41754;51.498;7.540;2023-07-13T00:48:43;3.40;;;1.63;;
16189;SDS011;41754;51.498;7.540;2023-07-13T00:51:15;3.35;;;1.60;;
16189;SDS011;41754;51.498;7.540;2023-07-13T00:53:46;3.42;;;1.45;;
16189;SDS011;41754;51.498;7.540;2023-07-13T00:56:14;4.40;;;1.60;;
16189;SDS011;41754;51.498;7.540;2023-07-13T00:58:43;4.38;;;1.88;;
16189;SDS011;41754;51.498;7.540;2023-07-13T01:01:11;4.75;;;1.50;;
16189;SDS011;41754;51.498;7.540;2023-07-13T01:03:40;3.00;;;1.55;;
16189;SDS011;41754;51.498;7.540;2023-07-13T01:06:08;4.30;;;1.70;;
16189;SDS011;41754;51.498;7.540;2023-07-13T01:08:38;7.93;;;2.00;;
16189;SDS011;41754;51.498;7.540;2023-07-13T01:11:06;3.58;;;1.65;;
16189;SDS011;41754;51.498;7.540;2023-07-13T01:13:35;2.65;;;1.30;;
16189;SDS011;41754;51.498;7.540;2023-07-13T01:16:04;3.65;;;1.50;;
16189;SDS011;41754;51.498;7.540;2023-07-13T01:18:40;3.08;;;1.33;;
16189;SDS011;41754;51.498;7.540;2023-07-13T01:21:10;6.38;;;2.00;;
16189;SDS011;41754;51.498;7.540;2023-07-13T01:23:39;3.13;;;1.85;;
16189;SDS011;41754;51.498;7.540;2023-07-13T01:26:07;4.72;;;1.55;;
16189;SDS011;41754;51.498;7.540;2023-07-13T01:28:36;4.75;;;1.50;;
16189;SDS011;41754;51.498;7.540;2023-07-13T01:31:07;3.22;;;1.27;;
16189;SDS011;41754;51.498;7.540;2023-07-13T01:33:36;3.90;;;1.50;;
16189;SDS011;41754;51.498;7.540;2023-07-13T01:36:04;3.60;;;1.52;;
16189;SDS011;41754;51.498;7.540;2023-07-13T01:38:34;7.57;;;1.65;;
16189;SDS011;41754;51.498;7.540;2023-07-13T01:41:03;3.90;;;1.42;;
16189;SDS011;41754;51.498;7.540;2023-07-13T01:43:31;2.40;;;1.35;;
16189;SDS011;41754;51.498;7.540;2023-07-13T01:46:00;4.97;;;1.80;;
16189;SDS011;41754;51.498;7.540;2023-07-13T01:48:47;5.15;;;2.00;;
16189;SDS011;41754;51.498;7.540;2023-07-13T01:51:15;3.05;;;1.40;;
16189;SDS011;41754;51.498;7.540;2023-07-13T01:53:45;2.65;;;1.42;;
16189;SDS011;41754;51.498;7.540;2023-07-13T01:56:13;4.20;;;1.48;;
16189;SDS011;41754;51.498;7.540;2023-07-13T01:58:41;4.57;;;1.60;;
16189;SDS011;41754;51.498;7.540;2023-07-13T02:01:08;3.70;;;1.23;;
16189;SDS011;41754;51.498;7.540;2023-07-13T02:03:36;6.80;;;1.48;;
16189;SDS011;41754;51.498;7.540;2023-07-13T02:06:04;4.15;;;1.35;;
16189;SDS011;41754;51.498;7.540;2023-07-13T02:08:32;4.78;;;1.40;;
16189;SDS011;41754;51.498;7.540;2023-07-13T02:11:03;2.55;;;1.40;;
16189;SDS011;41754;51.498;7.540;2023-07-13T02:13:31;4.22;;;1.70;;
16189;SDS011;41754;51.498;7.540;2023-07-13T02:15:59;3.90;;;1.35;;
16189;SDS011;41754;51.498;7.540;2023-07-13T02:18:27;4.45;;;1.45;;
16189;SDS011;41754;51.498;7.540;2023-07-13T02:20:55;7.13;;;1.95;;
16189;SDS011;41754;51.498;7.540;2023-07-13T02:23:23;3.13;;;1.27;;
16189;SDS011;41754;51.498;7.540;2023-07-13T02:25:54;6.22;;;1.88;;
16189;SDS011;41754;51.498;7.540;2023-07-13T02:28:24;7.35;;;1.48;;
16189;SDS011;41754;51.498;7.540;2023-07-13T02:30:52;4.72;;;1.70;;
16189;SDS011;41754;51.498;7.540;2023-07-13T02:33:20;4.22;;;1.60;;
16189;SDS011;41754;51.498;7.540;2023-07-13T02:35:47;5.82;;;1.50;;
16189;SDS011;41754;51.498;7.540;2023-07-13T02:38:15;6.10;;;1.45;;
16189;SDS011;41754;51.498;7.540;2023-07-13T02:40:43;5.47;;;1.65;;
16189;SDS011;41754;51.498;7.540;2023-07-13T02:43:11;6.93;;;1.58;;
16189;SDS011;41754;51.498;7.540;2023-07-13T02:45:44;3.63;;;1.42;;
16189;SDS011;41754;51.498;7.540;2023-07-13T02:48:13;3.67;;;1.25;;
16189;SDS011;41754;51.498;7.540;2023-07-13T02:50:41;5.53;;;1.63;;
16189;SDS011;41754;51.498;7.540;2023-07-13T02:53:09;5.43;;;1.45;;
16189;SDS011;41754;51.498;7.540;2023-07-13T02:55:37;4.90;;;2.03;;
16189;SDS011;41754;51.498;7.540;2023-07-13T02:58:07;7.68;;;2.08;;
16189;SDS011;41754;51.498;7.540;2023-07-13T03:00:37;4.22;;;1.63;;
16189;SDS011;41754;51.498;7.540;2023-07-13T03:03:09;3.45;;;1.60;;
16189;SDS011;41754;51.498;7.540;2023-07-13T03:05:37;3.13;;;1.42;;
16189;SDS011;41754;51.498;7.540;2023-07-13T03:08:05;4.18;;;1.88;;
16189;SDS011;41754;51.498;7.540;2023-07-13T03:10:33;4.18;;;1.40;;
16189;SDS011;41754;51.498;7.540;2023-07-13T03:13:02;2.85;;;1.30;;
16189;SDS011;41754;51.498;7.540;2023-07-13T03:15:30;3.05;;;1.40;;
16189;SDS011;41754;51.498;7.540;2023-07-13T03:17:57;4.60;;;1.40;;
16189;SDS011;41754;51.498;7.540;2023-07-13T03:20:27;7.85;;;1.70;;
16189;SDS011;41754;51.498;7.540;2023-07-13T03:22:55;6.53;;;1.55;;
16189;SDS011;41754;51.498;7.540;2023-07-13T03:25:25;4.85;;;1.77;;
16189;SDS011;41754;51.498;7.540;2023-07-13T03:27:53;4.60;;;1.98;;
16189;SDS011;41754;51.498;7.540;2023-07-13T03:30:21;3.42;;;1.83;;
16189;SDS011;41754;51.498;7.540;2023-07-13T03:32:50;3.20;;;1.30;;
16189;SDS011;41754;51.498;7.540;2023-07-13T03:35:18;6.35;;;1.50;;
16189;SDS011;41754;51.498;7.540;2023-07-13T03:37:47;4.45;;;1.60;;
16189;SDS011;41754;51.498;7.540;2023-07-13T03:40:19;5.57;;;1.75;;
16189;SDS011;41754;51.498;7.540;2023-07-13T03:42:47;4.85;;;1.60;;
16189;SDS011;41754;51.498;7.540;2023-07-13T03:45:17;7.22;;;1.73;;
16189;SDS011;41754;51.498;7.540;2023-07-13T03:47:45;4.20;;;1.77;;
16189;SDS011;41754;51.498;7.540;2023-07-13T03:50:16;2.83;;;1.40;;
16189;SDS011;41754;51.498;7.540;2023-07-13T03:52:44;3.60;;;1.55;;
16189;SDS011;41754;51.498;7.540;2023-07-13T03:55:15;3.85;;;1.30;;
16189;SDS011;41754;51.498;7.540;2023-07-13T03:57:44;3.47;;;1.35;;
16189;SDS011;41754;51.498;7.540;2023-07-13T04:00:13;4.60;;;1.38;;
16189;SDS011;41754;51.498;7.540;2023-07-13T04:02:42;7.32;;;2.08;;
16189;SDS011;41754;51.498;7.540;2023-07-13T04:05:10;8.55;;;2.13;;
16189;SDS011;41754;51.498;7.540;2023-07-13T04:07:38;5.35;;;1.60;;
16189;SDS011;41754;51.498;7.540;2023-07-13T04:10:06;7.15;;;2.25;;
16189;SDS011;41754;51.498;7.540;2023-07-13T04:12:35;7.88;;;1.90;;
16189;SDS011;41754;51.498;7.540;2023-07-13T04:15:04;3.13;;;1.30;;
16189;SDS011;41754;51.498;7.540;2023-07-13T04:17:32;4.03;;;1.60;;
16189;SDS011;41754;51.498;7.540;2023-07-13T04:20:00;4.53;;;1.58;;
16189;SDS011;41754;51.498;7.540;2023-07-13T04:22:28;4.45;;;1.50;;
16189;SDS011;41754;51.498;7.540;2023-07-13T04:24:56;4.50;;;1.73;;
16189;SDS011;41754;51.498;7.540;2023-07-13T04:27:24;2.92;;;1.65;;
16189;SDS011;41754;51.498;7.540;2023-07-13T04:29:53;6.68;;;1.75;;
16189;SDS011;41754;51.498;7.540;2023-07-13T04:32:21;4.32;;;1.50;;
16189;SDS011;41754;51.498;7.540;2023-07-13T04:34:49;2.42;;;1.50;;
16189;SDS011;41754;51.498;7.540;2023-07-13T04:37:20;5.93;;;1.55;;
16189;SDS011;41754;51.498;7.540;2023-07-13T04:39:48;3.60;;;1.88;;
16189;SDS011;41754;51.498;7.540;2023-07-13T04:42:16;2.90;;;1.45;;
16189;SDS011;41754;51.498;7.540;2023-07-13T04:44:47;4.20;;;1.67;;
16189;SDS011;41754;51.498;7.540;2023-07-13T04:47:17;5.30;;;1.50;;
16189;SDS011;41754;51.498;7.540;2023-07-13T04:49:45;5.32;;;1.63;;
16189;SDS011;41754;51.498;7.540;2023-07-13T04:52:12;4.88;;;1.90;;
16189;SDS011;41754;51.498;7.540;2023-07-13T04:54:40;7.32;;;2.08;;
16189;SDS011;41754;51.498;7.540;2023-07-13T04:57:08;5.20;;;1.83;;
16189;SDS011;41754;51.498;7.540;2023-07-13T04:59:36;4.10;;;1.50;;
16189;SDS011;41754;51.498;7.540;2023-07-13T05:02:04;3.85;;;1.77;;
16189;SDS011;41754;51.498;7.540;2023-07-13T05:04:34;6.75;;;1.95;;
16189;SDS011;41754;51.498;7.540;2023-07-13T05:07:02;5.32;;;1.55;;
16189;SDS011;41754;51.498;7.540;2023-07-13T05:09:29;6.35;;;3.30;;
16189;SDS011;41754;51.498;7.540;2023-07-13T05:11:57;6.18;;;1.70;;
16189;SDS011;41754;51.498;7.540;2023-07-13T05:14:25;4.85;;;1.70;;
16189;SDS011;41754;51.498;7.540;2023-07-13T05:16:53;6.32;;;1.77;;
16189;SDS011;41754;51.498;7.540;2023-07-13T05:19:23;7.45;;;2.05;;
16189;SDS011;41754;51.498;7.540;2023-07-13T05:21:52;4.20;;;1.77;;
16189;SDS011;41754;51.498;7.540;2023-07-13T05:24:20;5.82;;;2.08;;
16189;SDS011;41754;51.498;7.540;2023-07-13T05:26:51;5.03;;;1.65;;
16189;SDS011;41754;51.498;7.540;2023-07-13T05:29:19;5.90;;;2.28;;
16189;SDS011;41754;51.498;7.540;2023-07-13T05:31:48;4.72;;;1.70;;
16189;SDS011;41754;51.498;7.540;2023-07-13T05:34:16;4.43;;;1.70;;
16189;SDS011;41754;51.498;7.540;2023-07-13T05:36:44;8.30;;;2.33;;
16189;SDS011;41754;51.498;7.540;2023-07-13T05:39:13;6.57;;;2.08;;
16189;SDS011;41754;51.498;7.540;2023-07-13T05:41:41;4.65;;;1.90;;
16189;SDS011;41754;51.498;7.540;2023-07-13T05:44:09;8.57;;;2.25;;
16189;SDS011;41754;51.498;7.540;2023-07-13T05:46:36;5.95;;;1.80;;
16189;SDS011;41754;51.498;7.540;2023-07-13T05:49:04;4.15;;;2.20;;
16189;SDS011;41754;51.498;7.540;2023-07-13T05:51:32;5.93;;;2.15;;
16189;SDS011;41754;51.498;7.540;2023-07-13T05:54:00;4.95;;;2.15;;
16189;SDS011;41754;51.498;7.540;2023-07-13T05:56:29;4.57;;;2.35;;
16189;SDS011;41754;51.498;7.540;2023-07-13T05:58:57;8.07;;;2.33;;
16189;SDS011;41754;51.498;7.540;2023-07-13T06:01:25;9.30;;;2.55;;
16189;SDS011;41754;51.498;7.540;2023-07-13T06:03:53;8.02;;;2.65;;
16189;SDS011;41754;51.498;7.540;2023-07-13T06:06:21;4.55;;;1.98;;
16189;SDS011;41754;51.498;7.540;2023-07-13T06:08:49;4.80;;;2.38;;
16189;SDS011;41754;51.498;7.540;2023-07-13T06:11:17;6.60;;;2.38;;
16189;SDS011;41754;51.498;7.540;2023-07-13T06:13:48;7.72;;;2.60;;
16189;SDS011;41754;51.498;7.540;2023-07-13T06:16:16;5.15;;;2.60;;
16189;SDS011;41754;51.498;7.540;2023-07-13T06:18:45;6.03;;;2.67;;
16189;SDS011;41754;51.498;7.540;2023-07-13T06:21:14;7.45;;;2.50;;
16189;SDS011;41754;51.498;7.540;2023-07-13T06:23:43;7.75;;;2.85;;
16189;SDS011;41754;51.498;7.540;2023-07-13T06:26:11;9.23;;;3.20;;
16189;SDS011;41754;51.498;7.540;2023-07-13T06:28:39;9.60;;;3.17;;
16189;SDS011;41754;51.498;7.540;2023-07-13T06:31:10;5.68;;;2.63;;
16189;SDS011;41754;51.498;7.540;2023-07-13T06:33:40;9.48;;;3.35;;
16189;SDS011;41754;51.498;7.540;2023-07-13T06:36:08;6.78;;;3.03;;
16189;SDS011;41754;51.498;7.540;2023-07-13T06:38:36;6.20;;;2.45;;
16189;SDS011;41754;51.498;7.540;2023-07-13T06:41:05;8.15;;;2.85;;
16189;SDS011;41754;51.498;7.540;2023-07-13T06:43:35;7.53;;;3.22;;
16189;SDS011;41754;51.498;7.540;2023-07-13T06:46:03;6.68;;;3.08;;
16189;SDS011;41754;51.498;7.540;2023-07-13T06:48:33;9.57;;;3.78;;
16189;SDS011;41754;51.498;7.540;2023-07-13T06:51:01;8.65;;;3.42;;
16189;SDS011;41754;51.498;7.540;2023-07-13T06:53:30;8.55;;;3.00;;
16189;SDS011;41754;51.498;7.540;2023-07-13T06:55:58;7.85;;;2.65;;
16189;SDS011;41754;51.498;7.540;2023-07-13T06:58:26;8.98;;;3.30;;
16189;SDS011;41754;51.498;7.540;2023-07-13T07:00:54;11.98;;;3.58;;
16189;SDS011;41754;51.498;7.540;2023-07-13T07:03:22;6.88;;;2.40;;
16189;SDS011;41754;51.498;7.540;2023-07-13T07:05:52;9.45;;;2.85;;
16189;SDS011;41754;51.498;7.540;2023-07-13T07:08:20;8.82;;;2.83;;
16189;SDS011;41754;51.498;7.540;2023-07-13T07:10:47;5.88;;;2.88;;
16189;SDS011;41754;51.498;7.540;2023-07-13T07:13:20;5.75;;;2.63;;
16189;SDS011;41754;51.498;7.540;2023-07-13T07:15:49;6.07;;;2.83;;
16189;SDS011;41754;51.498;7.540;2023-07-13T07:18:17;7.82;;;2.90;;
16189;SDS011;41754;51.498;7.540;2023-07-13T07:20:45;8.18;;;3.42;;
16189;SDS011;41754;51.498;7.540;2023-07-13T07:23:14;8.10;;;3.03;;
16189;SDS011;41754;51.498;7.540;2023-07-13T07:25:43;7.28;;;3.08;;
16189;SDS011;41754;51.498;7.540;2023-07-13T07:28:11;6.22;;;2.95;;
16189;SDS011;41754;51.498;7.540;2023-07-13T07:30:59;9.52;;;3.10;;
16189;SDS011;41754;51.498;7.540;2023-07-13T07:33:29;8.30;;;3.00;;
16189;SDS011;41754;51.498;7.540;2023-07-13T07:35:57;7.13;;;2.92;;
16189;SDS011;41754;51.498;7.540;2023-07-13T07:38:29;5.05;;;2.38;;
16189;SDS011;41754;51.498;7.540;2023-07-13T07:40:57;6.75;;;2.67;;
16189;SDS011;41754;51.498;7.540;2023-07-13T07:43:28;7.63;;;2.85;;
16189;SDS011;41754;51.498;7.540;2023-07-13T07:45:56;5.70;;;2.47;;
16189;SDS011;41754;51.498;7.540;2023-07-13T07:48:27;8.77;;;2.67;;
16189;SDS011;41754;51.498;7.540;2023-07-13T07:50:54;8.80;;;2.90;;
16189;SDS011;41754;51.498;7.540;2023-07-13T07:53:22;5.00;;;2.40;;
16189;SDS011;41754;51.498;7.540;2023-07-13T07:55:52;6.40;;;2.55;;
16189;SDS011;41754;51.498;7.540;2023-07-13T07:58:23;8.10;;;2.80;;
16189;SDS011;41754;51.498;7.540;2023-07-13T08:00:53;9.07;;;2.42;;
16189;SDS011;41754;51.498;7.540;2023-07-13T08:03:24;5.93;;;2.08;;
16189;SDS011;41754;51.498;7.540;2023-07-13T08:05:55;4.82;;;2.38;;
16189;SDS011;41754;51.498;7.540;2023-07-13T08:08:42;6.32;;;1.83;;
16189;SDS011;41754;51.498;7.540;2023-07-13T08:11:12;5.57;;;2.00;;
16189;SDS011;41754;51.498;7.540;2023-07-13T08:13:42;9.93;;;2.33;;
16189;SDS011;41754;51.498;7.540;2023-07-13T08:16:10;7.47;;;2.33;;
16189;SDS011;41754;51.498;7.540;2023-07-13T08:18:39;8.30;;;2.28;;
16189;SDS011;41754;51.498;7.540;2023-07-13T08:21:07;6.85;;;2.33;;
16189;SDS011;41754;51.498;7.540;2023-07-13T08:23:36;7.03;;;2.42;;
16189;SDS011;41754;51.498;7.540;2023-07-13T08:26:05;5.30;;;1.83;;
16189;SDS011;41754;51.498;7.540;2023-07-13T08:28:35;8.27;;;3.55;;
16189;SDS011;41754;51.498;7.540;2023-07-13T08:31:02;8.98;;;2.60;;
16189;SDS011;41754;51.498;7.540;2023-07-13T08:33:31;5.85;;;2.33;;
16189;SDS011;41754;51.498;7.540;2023-07-13T08:35:59;6.70;;;1.92;;
16189;SDS011;41754;51.498;7.540;2023-07-13T08:38:27;5.35;;;2.22;;
16189;SDS011;41754;51.498;7.540;2023-07-13T08:40:55;5.13;;;2.40;;
16189;SDS011;41754;51.498;7.540;2023-07-13T08:43:25;6.20;;;2.25;;
16189;SDS011;41754;51.498;7.540;2023-07-13T08:45:58;7.45;;;2.50;;
16189;SDS011;41754;51.498;7.540;2023-07-13T08:48:33;6.15;;;1.80;;
16189;SDS011;41754;51.498;7.540;2023-07-13T08:51:07;6.85;;;2.40;;
16189;SDS011;41754;51.498;7.540;2023-07-13T08:53:48;6.18;;;2.25;;
16189;SDS011;41754;51.498;7.540;2023-07-13T08:56:18;3.70;;;2.08;;
16189;SDS011;41754;51.498;7.540;2023-07-13T08:58:49;7.50;;;2.50;;
16189;SDS011;41754;51.498;7.540;2023-07-13T09:01:23;8.20;;;2.67;;
16189;SDS011;41754;51.498;7.540;2023-07-13T09:03:59;8.32;;;2.20;;
16189;SDS011;41754;51.498;7.540;2023-07-13T09:06:34;5.43;;;1.65;;
16189;SDS011;41754;51.498;7.540;2023-07-13T09:09:15;3.95;;;2.13;;
16189;SDS011;41754;51.498;7.540;2023-07-13T09:11:53;6.00;;;2.20;;
16189;SDS011;41754;51.498;7.540;2023-07-13T09:14:39;3.50;;;1.77;;
16189;SDS011;41754;51.498;7.540;2023-07-13T09:17:14;6.03;;;2.40;;
16189;SDS011;41754;51.498;7.540;2023-07-13T09:19:46;4.95;;;2.28;;
16189;SDS011;41754;51.498;7.540;2023-07-13T09:22:20;6.25;;;2.25;;
16189;SDS011;41754;51.498;7.540;2023-07-13T09:24:57;10.20;;;2.35;;
16189;SDS011;41754;51.498;7.540;2023-07-13T09:27:33;8.07;;;2.50;;
16189;SDS011;41754;51.498;7.540;2023-07-13T09:30:22;6.32;;;2.35;;
16189;SDS011;41754;51.498;7.540;2023-07-13T09:32:59;5.15;;;2.58;;
16189;SDS011;41754;51.498;7.540;2023-07-13T09:35:28;4.25;;;2.17;;
16189;SDS011;41754;51.498;7.540;2023-07-13T09:37:57;6.70;;;2.05;;
16189;SDS011;41754;51.498;7.540;2023-07-13T09:40:30;8.57;;;2.33;;
16189;SDS011;41754;51.498;7.540;2023-07-13T09:43:08;6.05;;;2.00;;
16189;SDS011;41754;51.498;7.540;2023-07-13T09:45:40;5.00;;;2.20;;
16189;SDS011;41754;51.498;7.540;2023-07-13T09:48:14;5.38;;;2.10;;
16189;SDS011;41754;51.498;7.540;2023-07-13T09:50:45;4.07;;;2.13;;
16189;SDS011;41754;51.498;7.540;2023-07-13T09:53:13;5.00;;;2.35;;
16189;SDS011;41754;51.498;7.540;2023-07-13T09:55:43;3.10;;;1.85;;
16189;SDS011;41754;51.498;7.540;2023-07-13T09:58:15;4.65;;;2.10;;
16189;SDS011;41754;51.498;7.540;2023-07-13T10:00:53;4.18;;;2.30;;
16189;SDS011;41754;51.498;7.540;2023-07-13T10:03:26;5.43;;;1.95;;
16189;SDS011;41754;51.498;7.540;2023-07-13T10:05:58;5.55;;;2.00;;
16189;SDS011;41754;51.498;7.540;2023-07-13T10:08:32;6.38;;;1.92;;
16189;SDS011;41754;51.498;7.540;2023-07-13T10:11:08;7.25;;;2.08;;
16189;SDS011;41754;51.498;7.540;2023-07-13T10:13:40;5.90;;;2.20;;
16189;SDS011;41754;51.498;7.540;2023-07-13T10:16:10;4.03;;;1.92;;
16189;SDS011;41754;51.498;7.540;2023-07-13T10:18:42;6.55;;;2.28;;
16189;SDS011;41754;51.498;7.540;2023-07-13T10:21:14;4.57;;;2.10;;
16189;SDS011;41754;51.498;7.540;2023-07-13T10:23:48;6.25;;;2.28;;
16189;SDS011;41754;51.498;7.540;2023-07-13T10:26:21;4.53;;;2.33;;
16189;SDS011;41754;51.498;7.540;2023-07-13T10:28:53;4.15;;;2.15;;
16189;SDS011;41754;51.498;7.540;2023-07-13T10:31:25;5.20;;;2.00;;
16189;SDS011;41754;51.498;7.540;2023-07-13T10:33:54;5.15;;;2.30;;
16189;SDS011;41754;51.498;7.540;2023-07-13T10:36:30;6.03;;;2.17;;
16189;SDS011;41754;51.498;7.540;2023-07-13T10:39:02;3.83;;;2.10;;
16189;SDS011;41754;51.498;7.540;2023-07-13T10:41:34;3.38;;;2.25;;
16189;SDS011;41754;51.498;7.540;2023-07-13T10:44:07;6.43;;;2.10;;
16189;SDS011;41754;51.498;7.540;2023-07-13T10:46:46;3.90;;;1.98;;
16189;SDS011;41754;51.498;7.540;2023-07-13T10:49:16;5.15;;;2.22;;
16189;SDS011;41754;51.498;7.540;2023-07-13T10:51:45;5.68;;;2.53;;
16189;SDS011;41754;51.498;7.540;2023-07-13T10:54:18;6.68;;;2.50;;
16189;SDS011;41754;51.498;7.540;2023-07-13T10:56:50;5.28;;;2.10;;
16189;SDS011;41754;51.498;7.540;2023-07-13T10:59:23;4.05;;;2.20;;
16189;SDS011;41754;51.498;7.540;2023-07-13T11:01:55;5.38;;;2.33;;
16189;SDS011;41754;51.498;7.540;2023-07-13T11:04:29;4.68;;;2.13;;
16189;SDS011;41754;51.498;7.540;2023-07-13T11:07:10;4.72;;;2.20;;
16189;SDS011;41754;51.498;7.540;2023-07-13T11:09:46;4.82;;;2.22;;
16189;SDS011;41754;51.498;7.540;2023-07-13T11:12:28;5.55;;;2.55;;
16189;SDS011;41754;51.498;7.540;2023-07-13T11:15:11;6.15;;;2.20;;
16189;SDS011;41754;51.498;7.540;2023-07-13T11:17:47;5.13;;;2.03;;
16189;SDS011;41754;51.498;7.540;2023-07-13T11:20:23;6.40;;;1.83;;
16189;SDS011;41754;51.498;7.540;2023-07-13T11:25:46;3.33;;;2.22;;
16189;SDS011;41754;51.498;7.540;2023-07-13T11:28:21;6.20;;;2.25;;
16189;SDS011;41754;51.498;7.540;2023-07-13T11:30:59;3.17;;;2.05;;
16189;SDS011;41754;51.498;7.540;2023-07-13T11:33:31;5.13;;;1.92;;
16189;SDS011;41754;51.498;7.540;2023-07-13T11:36:27;6.20;;;2.55;;
16189;SDS011;41754;51.498;7.540;2023-07-13T11:39:00;5.55;;;1.80;;
16189;SDS011;41754;51.498;7.540;2023-07-13T11:41:33;4.43;;;1.80;;
16189;SDS011;41754;51.498;7.540;2023-07-13T11:44:06;6.82;;;1.80;;
16189;SDS011;41754;51.498;7.540;2023-07-13T11:46:39;6.30;;;2.40;;
16189;SDS011;41754;51.498;7.540;2023-07-13T11:49:14;3.72;;;2.17;;
16189;SDS011;41754;51.498;7.540;2023-07-13T11:51:44;5.53;;;2.20;;
16189;SDS011;41754;51.498;7.540;2023-07-13T11:54:19;3.10;;;1.75;;
16189;SDS011;41754;51.498;7.540;2023-07-13T11:56:53;2.63;;;1.73;;
16189;SDS011;41754;51.498;7.540;2023-07-13T11:59:22;4.57;;;1.95;;
16189;SDS011;41754;51.498;7.540;2023-07-13T12:01:51;2.95;;;1.90;;
16189;SDS011;41754;51.498;7.540;2023-07-13T12:04:22;3.90;;;1.85;;
16189;SDS011;41754;51.498;7.540;2023-07-13T12:06:57;5.95;;;1.90;;
16189;SDS011;41754;51.498;7.540;2023-07-13T12:09:30;3.25;;;1.63;;
16189;SDS011;41754;51.498;7.540;2023-07-13T12:12:02;3.97;;;1.75;;
16189;SDS011;41754;51.498;7.540;2023-07-13T12:14:33;3.75;;;2.17;;
16189;SDS011;41754;51.498;7.540;2023-07-13T12:17:04;3.25;;;1.98;;
16189;SDS011;41754;51.498;7.540;2023-07-13T12:19:38;5.97;;;2.03;;
16189;SDS011;41754;51.498;7.540;2023-07-13T12:22:09;3.85;;;2.20;;
16189;SDS011;41754;51.498;7.540;2023-07-13T12:24:40;3.70;;;1.70;;
16189;SDS011;41754;51.498;7.540;2023-07-13T12:27:14;3.38;;;2.08;;
16189;SDS011;41754;51.498;7.540;2023-07-13T12:29:49;3.33;;;1.90;;
16189;SDS011;41754;51.498;7.540;2023-07-13T12:32:20;2.83;;;2.10;;
16189;SDS011;41754;51.498;7.540;2023-07-13T12:34:52;3.45;;;1.95;;
16189;SDS011;41754;51.498;7.540;2023-07-13T12:37:22;3.20;;;1.50;;
16189;SDS011;41754;51.498;7.540;2023-07-13T12:39:51;4.63;;;1.80;;
16189;SDS011;41754;51.498;7.540;2023-07-13T12:42:20;3.83;;;1.85;;
16189;SDS011;41754;51.498;7.540;2023-07-13T12:44:53;3.58;;;1.80;;
16189;SDS011;41754;51.498;7.540;2023-07-13T12:47:21;2.83;;;1.95;;
16189;SDS011;41754;51.498;7.540;2023-07-13T12:49:50;3.58;;;2.00;;
16189;SDS011;41754;51.498;7.540;2023-07-13T12:52:24;4.75;;;2.08;;
16189;SDS011;41754;51.498;7.540;2023-07-13T12:54:57;3.38;;;1.42;;
16189;SDS011;41754;51.498;7.540;2023-07-13T12:57:32;3.10;;;1.73;;
16189;SDS011;41754;51.498;7.540;2023-07-13T13:00:10;2.20;;;1.65;;
16189;SDS011;41754;51.498;7.540;2023-07-13T13:02:51;3.85;;;1.70;;
16189;SDS011;41754;51.498;7.540;2023-07-13T13:05:33;2.70;;;1.98;;
16189;SDS011;41754;51.498;7.540;2023-07-13T13:08:07;4.00;;;1.70;;
16189;SDS011;41754;51.498;7.540;2023-07-13T13:10:38;4.63;;;1.80;;
16189;SDS011;41754;51.498;7.540;2023-07-13T13:13:06;2.80;;;1.90;;
16189;SDS011;41754;51.498;7.540;2023-07-13T13:15:35;2.92;;;2.03;;
16189;SDS011;41754;51.498;7.540;2023-07-13T13:18:04;3.40;;;2.25;;
16189;SDS011;41754;51.498;7.540;2023-07-13T13:20:41;3.70;;;2.08;;
16189;SDS011;41754;51.498;7.540;2023-07-13T13:23:12;5.07;;;2.53;;
16189;SDS011;41754;51.498;7.540;2023-07-13T13:25:44;3.00;;;1.77;;
16189;SDS011;41754;51.498;7.540;2023-07-13T13:28:13;3.42;;;1.67;;
16189;SDS011;41754;51.498;7.540;2023-07-13T13:30:43;3.45;;;1.88;;
16189;SDS011;41754;51.498;7.540;2023-07-13T13:33:12;3.92;;;1.90;;
16189;SDS011;41754;51.498;7.540;2023-07-13T13:35:41;3.42;;;1.83;;
16189;SDS011;41754;51.498;7.540;2023-07-13T13:38:12;2.53;;;1.80;;
16189;SDS011;41754;51.498;7.540;2023-07-13T13:40:41;3.20;;;1.60;;
16189;SDS011;41754;51.498;7.540;2023-07-13T13:43:21;4.82;;;2.10;;
16189;SDS011;41754;51.498;7.540;2023-07-13T13:45:53;2.78;;;1.77;;
16189;SDS011;41754;51.498;7.540;2023-07-13T13:48:25;5.03;;;1.90;;
16189;SDS011;41754;51.498;7.540;2023-07-13T13:50:57;3.72;;;1.98;;
16189;SDS011;41754;51.498;7.540;2023-07-13T13:53:27;7.85;;;2.25;;
16189;SDS011;41754;51.498;7.540;2023-07-13T13:55:55;13.05;;;2.80;;
16189;SDS011;41754;51.498;7.540;2023-07-13T13:58:23;14.52;;;3.55;;
16189;SDS011;41754;51.498;7.540;2023-07-13T14:00:51;9.63;;;3.40;;
16189;SDS011;41754;51.498;7.540;2023-07-13T14:03:19;5.15;;;3.00;;
16189;SDS011;41754;51.498;7.540;2023-07-13T14:05:49;5.75;;;2.95;;
16189;SDS011;41754;51.498;7.540;2023-07-13T14:08:17;5.75;;;3.13;;
16189;SDS011;41754;51.498;7.540;2023-07-13T14:10:49;5.10;;;2.83;;
16189;SDS011;41754;51.498;7.540;2023-07-13T14:13:26;5.25;;;3.10;;
16189;SDS011;41754;51.498;7.540;2023-07-13T14:15:55;6.57;;;3.97;;
16189;SDS011;41754;51.498;7.540;2023-07-13T14:18:23;3.35;;;2.80;;
16189;SDS011;41754;51.498;7.540;2023-07-13T14:20:51;4.93;;;3.35;;
16189;SDS011;41754;51.498;7.540;2023-07-13T14:23:19;3.97;;;2.85;;
16189;SDS011;41754;51.498;7.540;2023-07-13T14:25:49;5.13;;;2.85;;
16189;SDS011;41754;51.498;7.540;2023-07-13T14:28:20;3.47;;;3.00;;
16189;SDS011;41754;51.498;7.540;2023-07-13T14:30:50;4.15;;;2.60;;
16189;SDS011;41754;51.498;7.540;2023-07-13T14:33:19;3.92;;;2.60;;
16189;SDS011;41754;51.498;7.540;2023-07-13T14:35:47;2.85;;;2.53;;
16189;SDS011;41754;51.498;7.540;2023-07-13T14:38:17;3.95;;;2.22;;
16189;SDS011;41754;51.498;7.540;2023-07-13T14:40:46;5.22;;;2.72;;
16189;SDS011;41754;51.498;7.540;2023-07-13T14:43:16;2.50;;;2.25;;
16189;SDS011;41754;51.498;7.540;2023-07-13T14:45:46;3.90;;;2.60;;
16189;SDS011;41754;51.498;7.540;2023-07-13T14:48:16;5.10;;;2.40;;
16189;SDS011;41754;51.498;7.540;2023-07-13T14:50:46;5.82;;;2.72;;
16189;SDS011;41754;51.498;7.540;2023-07-13T14:53:14;4.63;;;2.20;;
16189;SDS011;41754;51.498;7.540;2023-07-13T14:55:42;3.83;;;2.53;;
16189;SDS011;41754;51.498;7.540;2023-07-13T14:58:11;2.92;;;2.20;;
16189;SDS011;41754;51.498;7.540;2023-07-13T15:00:40;3.70;;;2.70;;
16189;SDS011;41754;51.498;7.540;2023-07-13T15:03:12;3.92;;;2.67;;
16189;SDS011;41754;51.498;7.540;2023-07-13T15:05:48;4.15;;;2.70;;
16189;SDS011;41754;51.498;7.540;2023-07-13T15:08:16;5.18;;;2.78;;
16189;SDS011;41754;51.498;7.540;2023-07-13T15:10:44;6.13;;;3.20;;